sensor_id;sensor_type;location;lat;lon;timestamp;pressure;altitude;pressure_sealevel;temperature;humidity
54453;BME280;40363;52.270;10.546;2023-12-20T00:01:33;100183.00;;;5.68;89.49
54453;BME280;40363;52.270;10.546;2023-12-20T00:03:59;100179.66;;;5.71;89.92
54453;BME280;40363;52.270;10.546;2023-12-20T00:06:26;100176.75;;;5.68;89.70
54453;BME280;40363;52.270;10.546;2023-12-20T00:08:53;100174.22;;;5.71;89.81
54453;BME280;40363;52.270;10.546;2023-12-20T00:11:20;100169.63;;;5.72;89.78
54453;BME280;40363;52.270;10.546;2023-12-20T00:13:48;100174.84;;;5.68;89.97
54453;BME280;40363;52.270;10.546;2023-12-20T00:16:14;100165.59;;;5.69;89.86
54453;BME280;40363;52.270;10.546;2023-12-20T00:18:41;100162.88;;;5.69;90.04
54453;BME280;40363;52.270;10.546;2023-12-20T00:21:07;100169.53;;;5.63;90.41
54453;BME280;40363;52.270;10.546;2023-12-20T00:23:34;100181.22;;;5.64;90.46
54453;BME280;40363;52.270;10.546;2023-12-20T00:26:01;100166.00;;;5.63;90.67
54453;BME280;40363;52.270;10.546;2023-12-20T00:28:27;100174.84;;;5.68;89.96
54453;BME280;40363;52.270;10.546;2023-12-20T00:30:55;100168.31;;;5.69;90.07
54453;BME280;40363;52.270;10.546;2023-12-20T00:33:22;100178.38;;;5.69;90.13
54453;BME280;40363;52.270;10.546;2023-12-20T00:35:49;100180.09;;;5.65;90.30
54453;BME280;40363;52.270;10.546;2023-12-20T00:38:15;100185.22;;;5.66;90.67
54453;BME280;40363;52.270;10.546;2023-12-20T00:40:42;100188.44;;;5.68;90.36
54453;BME280;40363;52.270;10.546;2023-12-20T00:43:09;100180.50;;;5.72;90.64
54453;BME280;40363;52.270;10.546;2023-12-20T00:45:35;100179.06;;;5.74;90.23
54453;BME280;40363;52.270;10.546;2023-12-20T00:48:04;100184.38;;;5.80;90.40
54453;BME280;40363;52.270;10.546;2023-12-20T00:50:31;100174.63;;;5.78;90.51
54453;BME280;40363;52.270;10.546;2023-12-20T00:52:57;100183.66;;;5.88;90.27
54453;BME280;40363;52.270;10.546;2023-12-20T00:55:24;100189.56;;;5.90;89.99
54453;BME280;40363;52.270;10.546;2023-12-20T00:57:51;100203.06;;;5.95;89.98
54453;BME280;40363;52.270;10.546;2023-12-20T01:00:19;100189.75;;;6.07;89.62
54453;BME280;40363;52.270;10.546;2023-12-20T01:02:46;100195.63;;;6.01;89.45
54453;BME280;40363;52.270;10.546;2023-12-20T01:05:17;100201.25;;;6.04;89.68
54453;BME280;40363;52.270;10.546;2023-12-20T01:07:44;100196.72;;;6.00;89.22
54453;BME280;40363;52.270;10.546;2023-12-20T01:10:11;100191.34;;;6.08;89.06
54453;BME280;40363;52.270;10.546;2023-12-20T01:12:37;100199.31;;;6.05;88.90
54453;BME280;40363;52.270;10.546;2023-12-20T01:15:05;100198.66;;;5.99;87.95
54453;BME280;40363;52.270;10.546;2023-12-20T01:17:32;100198.53;;;6.04;88.02
54453;BME280;40363;52.270;10.546;2023-12-20T01:19:58;100192.09;;;6.00;88.03
54453;BME280;40363;52.270;10.546;2023-12-20T01:22:26;100187.81;;;6.08;87.87
54453;BME280;40363;52.270;10.546;2023-12-20T01:24:53;100177.88;;;6.03;87.41
54453;BME280;40363;52.270;10.546;2023-12-20T01:27:20;100184.22;;;5.99;86.79
54453;BME280;40363;52.270;10.546;2023-12-20T01:29:46;100192.00;;;5.91;87.50
54453;BME280;40363;52.270;10.546;2023-12-20T01:32:13;100196.63;;;5.91;87.09
54453;BME280;40363;52.270;10.546;2023-12-20T01:34:39;100194.53;;;5.88;86.55
54453;BME280;40363;52.270;10.546;2023-12-20T01:37:06;100195.75;;;5.82;86.56
54453;BME280;40363;52.270;10.546;2023-12-20T01:39:34;100197.00;;;5.75;86.53
54453;BME280;40363;52.270;10.546;2023-12-20T01:42:01;100196.81;;;5.72;86.30
54453;BME280;40363;52.270;10.546;2023-12-20T01:44:27;100189.56;;;5.67;86.00
54453;BME280;40363;52.270;10.546;2023-12-20T01:46:54;100192.72;;;5.61;86.24
54453;BME280;40363;52.270;10.546;2023-12-20T01:49:21;100186.78;;;5.58;86.46
54453;BME280;40363;52.270;10.546;2023-12-20T01:51:49;100203.88;;;5.59;86.15
54453;BME280;40363;52.270;10.546;2023-12-20T01:54:17;100211.38;;;5.53;85.83
54453;BME280;40363;52.270;10.546;2023-12-20T01:56:47;100205.94;;;5.53;86.08
54453;BME280;40363;52.270;10.546;2023-12-20T01:59:15;100205.22;;;5.48;86.05
54453;BME280;40363;52.270;10.546;2023-12-20T02:01:42;100203.09;;;5.45;85.95
54453;BME280;40363;52.270;10.546;2023-12-20T02:04:08;100207.13;;;5.47;86.06
54453;BME280;40363;52.270;10.546;2023-12-20T02:06:35;100198.31;;;5.42;85.58
54453;BME280;40363;52.270;10.546;2023-12-20T02:09:03;100205.22;;;5.48;85.47
54453;BME280;40363;52.270;10.546;2023-12-20T02:11:29;100202.13;;;5.40;85.51
54453;BME280;40363;52.270;10.546;2023-12-20T02:13:58;100212.31;;;5.35;85.54
54453;BME280;40363;52.270;10.546;2023-12-20T02:16:24;100204.75;;;5.32;86.33
54453;BME280;40363;52.270;10.546;2023-12-20T02:18:51;100213.69;;;5.32;86.28
54453;BME280;40363;52.270;10.546;2023-12-20T02:21:18;100208.25;;;5.32;85.98
54453;BME280;40363;52.270;10.546;2023-12-20T02:23:46;100210.38;;;5.35;86.25
54453;BME280;40363;52.270;10.546;2023-12-20T02:26:13;100209.41;;;5.31;86.38
54453;BME280;40363;52.270;10.546;2023-12-20T02:28:40;100222.47;;;5.29;86.06
54453;BME280;40363;52.270;10.546;2023-12-20T02:31:07;100212.22;;;5.26;85.98
54453;BME280;40363;52.270;10.546;2023-12-20T02:33:33;100224.38;;;5.29;86.29
54453;BME280;40363;52.270;10.546;2023-12-20T02:36:00;100219.84;;;5.24;86.15
54453;BME280;40363;52.270;10.546;2023-12-20T02:38:27;100216.63;;;5.22;86.08
54453;BME280;40363;52.270;10.546;2023-12-20T02:40:55;100215.00;;;5.21;86.01
54453;BME280;40363;52.270;10.546;2023-12-20T02:43:21;100202.97;;;5.13;85.98
54453;BME280;40363;52.270;10.546;2023-12-20T02:45:48;100201.63;;;5.11;86.20
54453;BME280;40363;52.270;10.546;2023-12-20T02:48:15;100201.44;;;5.07;86.09
54453;BME280;40363;52.270;10.546;2023-12-20T02:50:41;100192.50;;;5.07;85.41
54453;BME280;40363;52.270;10.546;2023-12-20T02:53:08;100189.38;;;4.99;85.64
54453;BME280;40363;52.270;10.546;2023-12-20T02:55:35;100197.13;;;4.92;86.14
54453;BME280;40363;52.270;10.546;2023-12-20T02:58:03;100196.81;;;4.94;86.11
54453;BME280;40363;52.270;10.546;2023-12-20T03:00:29;100192.91;;;4.86;86.37
54453;BME280;40363;52.270;10.546;2023-12-20T03:02:56;100190.69;;;4.88;85.84
54453;BME280;40363;52.270;10.546;2023-12-20T03:05:22;100193.22;;;4.84;85.79
54453;BME280;40363;52.270;10.546;2023-12-20T03:07:48;100195.44;;;4.82;85.88
54453;BME280;40363;52.270;10.546;2023-12-20T03:10:15;100180.53;;;4.80;85.83
54453;BME280;40363;52.270;10.546;2023-12-20T03:12:42;100181.22;;;4.72;85.74
54453;BME280;40363;52.270;10.546;2023-12-20T03:15:10;100183.25;;;4.66;86.42
54453;BME280;40363;52.270;10.546;2023-12-20T03:17:37;100183.84;;;4.63;86.09
54453;BME280;40363;52.270;10.546;2023-12-20T03:20:05;100179.81;;;4.60;85.97
54453;BME280;40363;52.270;10.546;2023-12-20T03:22:31;100179.00;;;4.60;85.71
54453;BME280;40363;52.270;10.546;2023-12-20T03:24:58;100177.81;;;4.52;86.24
54453;BME280;40363;52.270;10.546;2023-12-20T03:27:24;100177.81;;;4.52;86.08
54453;BME280;40363;52.270;10.546;2023-12-20T03:29:51;100182.69;;;4.50;85.54
54453;BME280;40363;52.270;10.546;2023-12-20T03:32:19;100175.78;;;4.44;85.95
54453;BME280;40363;52.270;10.546;2023-12-20T03:34:46;100171.72;;;4.41;86.03
54453;BME280;40363;52.270;10.546;2023-12-20T03:37:13;100169.31;;;4.40;85.60
54453;BME280;40363;52.270;10.546;2023-12-20T03:39:40;100168.31;;;4.36;85.78
54453;BME280;40363;52.270;10.546;2023-12-20T03:42:06;100162.50;;;4.42;85.86
54453;BME280;40363;52.270;10.546;2023-12-20T03:44:33;100154.44;;;4.37;85.75
54453;BME280;40363;52.270;10.546;2023-12-20T03:46:59;100148.72;;;4.39;85.28
54453;BME280;40363;52.270;10.546;2023-12-20T03:49:28;100140.69;;;4.34;85.30
54453;BME280;40363;52.270;10.546;2023-12-20T03:51:55;100144.28;;;4.29;85.54
54453;BME280;40363;52.270;10.546;2023-12-20T03:54:21;100149.41;;;4.31;85.23
54453;BME280;40363;52.270;10.546;2023-12-20T03:56:48;100139.94;;;4.28;85.06
54453;BME280;40363;52.270;10.546;2023-12-20T03:59:15;100141.38;;;4.25;84.76
54453;BME280;40363;52.270;10.546;2023-12-20T04:01:43;100142.66;;;4.28;84.67
54453;BME280;40363;52.270;10.546;2023-12-20T04:04:10;100139.75;;;4.24;84.28
54453;BME280;40363;52.270;10.546;2023-12-20T04:06:39;100140.34;;;4.21;84.17
54453;BME280;40363;52.270;10.546;2023-12-20T04:09:06;100144.66;;;4.22;83.89
54453;BME280;40363;52.270;10.546;2023-12-20T04:11:34;100147.19;;;4.19;83.90
54453;BME280;40363;52.270;10.546;2023-12-20T04:14:01;100149.41;;;4.17;83.83
54453;BME280;40363;52.270;10.546;2023-12-20T04:16:27;100145.84;;;4.16;83.20
54453;BME280;40363;52.270;10.546;2023-12-20T04:18:54;100146.38;;;4.18;83.39
54453;BME280;40363;52.270;10.546;2023-12-20T04:21:20;100133.91;;;4.17;83.12
54453;BME280;40363;52.270;10.546;2023-12-20T04:23:48;100125.56;;;4.14;82.85
54453;BME280;40363;52.270;10.546;2023-12-20T04:26:15;100130.69;;;4.15;82.56
54453;BME280;40363;52.270;10.546;2023-12-20T04:28:42;100122.03;;;4.13;82.65
54453;BME280;40363;52.270;10.546;2023-12-20T04:31:08;100124.16;;;4.16;82.24
54453;BME280;40363;52.270;10.546;2023-12-20T04:33:35;100116.53;;;4.18;82.39
54453;BME280;40363;52.270;10.546;2023-12-20T04:36:02;100119.31;;;4.13;82.52
54453;BME280;40363;52.270;10.546;2023-12-20T04:38:29;100134.63;;;4.23;81.94
54453;BME280;40363;52.270;10.546;2023-12-20T04:40:57;100130.59;;;4.20;82.13
54453;BME280;40363;52.270;10.546;2023-12-20T04:43:24;100137.03;;;4.24;81.86
54453;BME280;40363;52.270;10.546;2023-12-20T04:45:50;100128.31;;;4.27;82.03
54453;BME280;40363;52.270;10.546;2023-12-20T04:48:17;100130.63;;;4.34;81.79
54453;BME280;40363;52.270;10.546;2023-12-20T04:50:44;100130.91;;;4.33;82.04
54453;BME280;40363;52.270;10.546;2023-12-20T04:53:10;100134.53;;;4.28;81.76
54453;BME280;40363;52.270;10.546;2023-12-20T04:55:37;100131.50;;;4.29;81.90
54453;BME280;40363;52.270;10.546;2023-12-20T04:58:04;100128.09;;;4.38;81.49
54453;BME280;40363;52.270;10.546;2023-12-20T05:00:31;100129.44;;;4.40;80.95
54453;BME280;40363;52.270;10.546;2023-12-20T05:02:57;100123.72;;;4.42;81.21
54453;BME280;40363;52.270;10.546;2023-12-20T05:05:24;100113.06;;;4.45;81.06
54453;BME280;40363;52.270;10.546;2023-12-20T05:07:51;100125.19;;;4.48;81.23
54453;BME280;40363;52.270;10.546;2023-12-20T05:10:17;100122.19;;;4.50;81.08
54453;BME280;40363;52.270;10.546;2023-12-20T05:12:44;100119.47;;;4.50;80.88
54453;BME280;40363;52.270;10.546;2023-12-20T05:15:12;100117.78;;;4.54;80.74
54453;BME280;40363;52.270;10.546;2023-12-20T05:17:39;100114.44;;;4.57;80.56
54453;BME280;40363;52.270;10.546;2023-12-20T05:20:07;100118.47;;;4.59;80.64
54453;BME280;40363;52.270;10.546;2023-12-20T05:22:34;100115.66;;;4.64;80.27
54453;BME280;40363;52.270;10.546;2023-12-20T05:25:00;100115.06;;;4.68;80.57
54453;BME280;40363;52.270;10.546;2023-12-20T05:27:27;100109.34;;;4.69;79.79
54453;BME280;40363;52.270;10.546;2023-12-20T05:29:54;100114.66;;;4.74;80.09
54453;BME280;40363;52.270;10.546;2023-12-20T05:32:24;100119.16;;;4.79;79.60
54453;BME280;40363;52.270;10.546;2023-12-20T05:34:50;100111.53;;;4.81;80.13
54453;BME280;40363;52.270;10.546;2023-12-20T05:37:17;100114.16;;;4.86;79.75
54453;BME280;40363;52.270;10.546;2023-12-20T05:39:44;100106.78;;;4.87;80.30
54453;BME280;40363;52.270;10.546;2023-12-20T05:42:10;100102.69;;;4.89;79.53
54453;BME280;40363;52.270;10.546;2023-12-20T05:44:37;100105.88;;;4.91;79.89
54453;BME280;40363;52.270;10.546;2023-12-20T05:47:04;100104.28;;;4.90;79.75
54453;BME280;40363;52.270;10.546;2023-12-20T05:49:32;100106.69;;;4.92;79.47
54453;BME280;40363;52.270;10.546;2023-12-20T05:51:58;100111.22;;;4.96;79.61
54453;BME280;40363;52.270;10.546;2023-12-20T05:54:25;100104.16;;;4.95;79.90
54453;BME280;40363;52.270;10.546;2023-12-20T05:56:51;100092.81;;;4.93;79.69
54453;BME280;40363;52.270;10.546;2023-12-20T05:59:18;100089.47;;;4.96;79.74
54453;BME280;40363;52.270;10.546;2023-12-20T06:01:45;100090.66;;;5.04;79.48
54453;BME280;40363;52.270;10.546;2023-12-20T06:04:12;100097.09;;;5.08;79.54
54453;BME280;40363;52.270;10.546;2023-12-20T06:06:42;100086.72;;;5.10;79.03
54453;BME280;40363;52.270;10.546;2023-12-20T06:09:09;100084.91;;;5.19;78.53
54453;BME280;40363;52.270;10.546;2023-12-20T06:11:35;100089.34;;;5.15;78.85
54453;BME280;40363;52.270;10.546;2023-12-20T06:14:02;100101.63;;;5.13;79.46
54453;BME280;40363;52.270;10.546;2023-12-20T06:16:29;100104.34;;;5.13;80.17
54453;BME280;40363;52.270;10.546;2023-12-20T06:18:55;100104.34;;;5.13;80.13
54453;BME280;40363;52.270;10.546;2023-12-20T06:21:22;100103.72;;;5.16;79.89
54453;BME280;40363;52.270;10.546;2023-12-20T06:23:50;100104.66;;;5.11;80.19
54453;BME280;40363;52.270;10.546;2023-12-20T06:26:17;100104.66;;;5.11;80.04
54453;BME280;40363;52.270;10.546;2023-12-20T06:28:44;100112.50;;;5.13;80.14
54453;BME280;40363;52.270;10.546;2023-12-20T06:31:10;100108.84;;;5.17;79.82
54453;BME280;40363;52.270;10.546;2023-12-20T06:33:38;100108.66;;;5.14;79.79
54453;BME280;40363;52.270;10.546;2023-12-20T06:36:06;100103.94;;;5.19;79.58
54453;BME280;40363;52.270;10.546;2023-12-20T06:38:32;100100.09;;;5.20;79.88
54453;BME280;40363;52.270;10.546;2023-12-20T06:41:00;100099.28;;;5.20;80.21
54453;BME280;40363;52.270;10.546;2023-12-20T06:43:27;100112.38;;;5.18;80.14
54453;BME280;40363;52.270;10.546;2023-12-20T06:45:54;100112.09;;;5.19;80.70
54453;BME280;40363;52.270;10.546;2023-12-20T06:48:21;100107.75;;;5.18;79.87
54453;BME280;40363;52.270;10.546;2023-12-20T06:50:47;100106.31;;;5.21;80.24
54453;BME280;40363;52.270;10.546;2023-12-20T06:53:14;100101.09;;;5.25;80.31
54453;BME280;40363;52.270;10.546;2023-12-20T06:55:40;100104.44;;;5.21;80.18
54453;BME280;40363;52.270;10.546;2023-12-20T06:58:09;100109.56;;;5.23;79.96
54453;BME280;40363;52.270;10.546;2023-12-20T07:00:35;100095.66;;;5.25;79.72
54453;BME280;40363;52.270;10.546;2023-12-20T07:03:02;100090.84;;;5.21;79.60
54453;BME280;40363;52.270;10.546;2023-12-20T07:05:29;100100.78;;;5.26;79.27
54453;BME280;40363;52.270;10.546;2023-12-20T07:07:56;100087.81;;;5.23;79.36
54453;BME280;40363;52.270;10.546;2023-12-20T07:10:22;100085.59;;;5.25;79.05
54453;BME280;40363;52.270;10.546;2023-12-20T07:12:49;100088.63;;;5.24;79.26
54453;BME280;40363;52.270;10.546;2023-12-20T07:15:18;100090.53;;;5.23;79.92
54453;BME280;40363;52.270;10.546;2023-12-20T07:17:44;100080.88;;;5.17;79.85
54453;BME280;40363;52.270;10.546;2023-12-20T07:20:11;100079.78;;;5.18;79.85
54453;BME280;40363;52.270;10.546;2023-12-20T07:22:38;100085.22;;;5.18;79.96
54453;BME280;40363;52.270;10.546;2023-12-20T07:25:06;100078.66;;;5.19;80.42
54453;BME280;40363;52.270;10.546;2023-12-20T07:27:33;100076.44;;;5.21;79.77
54453;BME280;40363;52.270;10.546;2023-12-20T07:29:59;100085.91;;;5.24;80.48
54453;BME280;40363;52.270;10.546;2023-12-20T07:32:27;100084.78;;;5.25;80.27
54453;BME280;40363;52.270;10.546;2023-12-20T07:34:55;100098.38;;;5.25;80.50
54453;BME280;40363;52.270;10.546;2023-12-20T07:37:22;100097.75;;;5.28;79.90
54453;BME280;40363;52.270;10.546;2023-12-20T07:39:49;100100.56;;;5.22;79.80
54453;BME280;40363;52.270;10.546;2023-12-20T07:42:15;100094.03;;;5.24;79.94
54453;BME280;40363;52.270;10.546;2023-12-20T07:44:42;100093.94;;;5.29;79.97
54453;BME280;40363;52.270;10.546;2023-12-20T07:47:09;100095.25;;;5.31;79.79
54453;BME280;40363;52.270;10.546;2023-12-20T07:49:38;100107.03;;;5.27;79.52
54453;BME280;40363;52.270;10.546;2023-12-20T07:52:05;100104.97;;;5.32;79.54
54453;BME280;40363;52.270;10.546;2023-12-20T07:54:33;100102.09;;;5.29;79.23
54453;BME280;40363;52.270;10.546;2023-12-20T07:57:00;100089.28;;;5.29;78.73
54453;BME280;40363;52.270;10.546;2023-12-20T07:59:26;100088.91;;;5.22;79.01
54453;BME280;40363;52.270;10.546;2023-12-20T08:01:53;100098.91;;;5.13;78.92
54453;BME280;40363;52.270;10.546;2023-12-20T08:04:21;100086.31;;;5.17;79.21
54453;BME280;40363;52.270;10.546;2023-12-20T08:06:50;100088.84;;;5.13;79.22
54453;BME280;40363;52.270;10.546;2023-12-20T08:09:17;100095.97;;;5.09;79.30
54453;BME280;40363;52.270;10.546;2023-12-20T08:11:45;100095.06;;;5.14;79.33
54453;BME280;40363;52.270;10.546;2023-12-20T08:14:12;100096.94;;;5.27;78.58
54453;BME280;40363;52.270;10.546;2023-12-20T08:16:38;100098.81;;;5.40;78.01
54453;BME280;40363;52.270;10.546;2023-12-20T08:19:05;100090.84;;;5.44;78.09
54453;BME280;40363;52.270;10.546;2023-12-20T08:21:32;100081.59;;;5.45;78.03
54453;BME280;40363;52.270;10.546;2023-12-20T08:24:00;100087.03;;;5.45;77.66
54453;BME280;40363;52.270;10.546;2023-12-20T08:28:57;100099.63;;;5.41;77.74
54453;BME280;40363;52.270;10.546;2023-12-20T08:31:24;100095.50;;;5.44;77.65
54453;BME280;40363;52.270;10.546;2023-12-20T08:33:51;100102.03;;;5.43;77.71
54453;BME280;40363;52.270;10.546;2023-12-20T08:36:19;100103.16;;;5.42;78.04
54453;BME280;40363;52.270;10.546;2023-12-20T08:38:46;100107.47;;;5.43;78.20
54453;BME280;40363;52.270;10.546;2023-12-20T08:41:15;100104.25;;;5.40;78.03
54453;BME280;40363;52.270;10.546;2023-12-20T08:43:42;100098.53;;;5.42;78.30
54453;BME280;40363;52.270;10.546;2023-12-20T08:46:09;100097.97;;;5.54;78.23
54453;BME280;40363;52.270;10.546;2023-12-20T08:48:36;100093.75;;;5.48;78.11
54453;BME280;40363;52.270;10.546;2023-12-20T08:51:04;100077.97;;;5.50;78.95
54453;BME280;40363;52.270;10.546;2023-12-20T08:53:32;100080.34;;;5.51;79.34
54453;BME280;40363;52.270;10.546;2023-12-20T08:55:59;100072.53;;;5.50;79.14
54453;BME280;40363;52.270;10.546;2023-12-20T08:58:28;100070.41;;;5.47;79.54
54453;BME280;40363;52.270;10.546;2023-12-20T09:00:55;100057.63;;;5.47;79.19
54453;BME280;40363;52.270;10.546;2023-12-20T09:03:22;100054.09;;;5.47;79.60
54453;BME280;40363;52.270;10.546;2023-12-20T09:05:49;100056.81;;;5.47;79.24
54453;BME280;40363;52.270;10.546;2023-12-20T09:08:16;100058.53;;;5.43;79.09
54453;BME280;40363;52.270;10.546;2023-12-20T09:10:43;100059.53;;;5.47;78.93
54453;BME280;40363;52.270;10.546;2023-12-20T09:13:10;100053.97;;;5.52;79.37
54453;BME280;40363;52.270;10.546;2023-12-20T09:15:38;100049.53;;;5.56;78.85
54453;BME280;40363;52.270;10.546;2023-12-20T09:18:05;100038.50;;;5.61;77.62
54453;BME280;40363;52.270;10.546;2023-12-20T09:20:31;100043.38;;;5.73;76.75
54453;BME280;40363;52.270;10.546;2023-12-20T09:22:58;100047.09;;;5.77;76.78
54453;BME280;40363;52.270;10.546;2023-12-20T09:25:25;100045.34;;;5.81;77.37
54453;BME280;40363;52.270;10.546;2023-12-20T09:27:52;100046.69;;;5.92;77.40
54453;BME280;40363;52.270;10.546;2023-12-20T09:30:19;100038.38;;;5.89;77.78
54453;BME280;40363;52.270;10.546;2023-12-20T09:32:47;100036.28;;;5.86;76.85
54453;BME280;40363;52.270;10.546;2023-12-20T09:35:13;100032.94;;;5.89;76.72
54453;BME280;40363;52.270;10.546;2023-12-20T09:37:40;100022.22;;;5.92;76.18
54453;BME280;40363;52.270;10.546;2023-12-20T09:40:11;100022.78;;;6.03;76.20
54453;BME280;40363;52.270;10.546;2023-12-20T09:42:46;100018.94;;;6.04;75.67
54453;BME280;40363;52.270;10.546;2023-12-20T09:45:15;100009.03;;;6.08;75.42
54453;BME280;40363;52.270;10.546;2023-12-20T09:47:48;100005.19;;;6.09;75.90
54453;BME280;40363;52.270;10.546;2023-12-20T09:50:17;100004.53;;;6.04;75.90
54453;BME280;40363;52.270;10.546;2023-12-20T09:52:46;100011.25;;;6.06;75.58
54453;BME280;40363;52.270;10.546;2023-12-20T09:55:17;100006.44;;;6.03;75.86
54453;BME280;40363;52.270;10.546;2023-12-20T09:57:44;100010.22;;;5.93;75.70
54453;BME280;40363;52.270;10.546;2023-12-20T10:00:12;100011.34;;;5.92;76.18
54453;BME280;40363;52.270;10.546;2023-12-20T10:02:44;100002.50;;;5.87;76.84
54453;BME280;40363;52.270;10.546;2023-12-20T10:05:16;100010.03;;;5.90;76.00
54453;BME280;40363;52.270;10.546;2023-12-20T10:07:44;99987.34;;;5.94;76.21
54453;BME280;40363;52.270;10.546;2023-12-20T10:10:12;99982.09;;;5.98;75.57
54453;BME280;40363;52.270;10.546;2023-12-20T10:12:39;99983.72;;;5.99;75.48
54453;BME280;40363;52.270;10.546;2023-12-20T10:15:06;99984.69;;;6.03;75.39
54453;BME280;40363;52.270;10.546;2023-12-20T10:17:33;99981.81;;;6.08;75.10
54453;BME280;40363;52.270;10.546;2023-12-20T10:19:59;99983.44;;;6.18;74.52
54453;BME280;40363;52.270;10.546;2023-12-20T10:22:28;99968.22;;;6.17;74.63
54453;BME280;40363;52.270;10.546;2023-12-20T10:24:56;99965.84;;;6.16;74.51
54453;BME280;40363;52.270;10.546;2023-12-20T10:27:23;99954.97;;;6.16;74.21
54453;BME280;40363;52.270;10.546;2023-12-20T10:29:49;99950.03;;;6.26;73.87
54453;BME280;40363;52.270;10.546;2023-12-20T10:32:22;99947.16;;;6.31;73.22
54453;BME280;40363;52.270;10.546;2023-12-20T10:34:49;99932.91;;;6.35;73.58
54453;BME280;40363;52.270;10.546;2023-12-20T10:37:17;99932.59;;;6.36;73.60
54453;BME280;40363;52.270;10.546;2023-12-20T10:39:52;99926.00;;;6.37;73.40
54453;BME280;40363;52.270;10.546;2023-12-20T10:42:25;99919.63;;;6.42;73.91
54453;BME280;40363;52.270;10.546;2023-12-20T10:44:52;99926.31;;;6.36;73.34
54453;BME280;40363;52.270;10.546;2023-12-20T10:47:19;99922.50;;;6.37;73.62
54453;BME280;40363;52.270;10.546;2023-12-20T10:49:47;99929.03;;;6.36;73.27
54453;BME280;40363;52.270;10.546;2023-12-20T10:52:13;99913.38;;;6.41;73.92
54453;BME280;40363;52.270;10.546;2023-12-20T10:54:40;99914.00;;;6.38;73.99
54453;BME280;40363;52.270;10.546;2023-12-20T10:57:08;99906.63;;;6.39;73.84
54453;BME280;40363;52.270;10.546;2023-12-20T10:59:37;99905.84;;;6.38;73.67
54453;BME280;40363;52.270;10.546;2023-12-20T11:02:04;99897.84;;;6.33;74.12
54453;BME280;40363;52.270;10.546;2023-12-20T11:04:37;99895.59;;;6.35;74.19
54453;BME280;40363;52.270;10.546;2023-12-20T11:07:11;99891.13;;;6.39;74.15
54453;BME280;40363;52.270;10.546;2023-12-20T11:09:47;99896.22;;;6.32;74.40
54453;BME280;40363;52.270;10.546;2023-12-20T11:12:20;99888.22;;;6.36;74.46
54453;BME280;40363;52.270;10.546;2023-12-20T11:14:54;99883.59;;;6.36;74.18
54453;BME280;40363;52.270;10.546;2023-12-20T11:17:22;99885.00;;;6.33;74.85
54453;BME280;40363;52.270;10.546;2023-12-20T11:20:09;99877.16;;;6.32;75.63
54453;BME280;40363;52.270;10.546;2023-12-20T11:22:40;99885.00;;;6.33;75.29
54453;BME280;40363;52.270;10.546;2023-12-20T11:25:17;99879.72;;;6.37;75.74
54453;BME280;40363;52.270;10.546;2023-12-20T11:28:08;99885.00;;;6.33;75.10
54453;BME280;40363;52.270;10.546;2023-12-20T11:30:43;99873.97;;;6.30;75.78
54453;BME280;40363;52.270;10.546;2023-12-20T11:33:13;99876.69;;;6.30;75.72
54453;BME280;40363;52.270;10.546;2023-12-20T11:35:39;99870.13;;;6.31;76.10
54453;BME280;40363;52.270;10.546;2023-12-20T11:38:08;99863.41;;;6.28;75.61
54453;BME280;40363;52.270;10.546;2023-12-20T11:40:35;99871.72;;;6.32;75.91
54453;BME280;40363;52.270;10.546;2023-12-20T11:43:04;99873.34;;;6.33;76.49
54453;BME280;40363;52.270;10.546;2023-12-20T11:45:31;99857.16;;;6.37;75.85
54453;BME280;40363;52.270;10.546;2023-12-20T11:47:58;99868.06;;;6.37;76.53
54453;BME280;40363;52.270;10.546;2023-12-20T11:50:25;99865.66;;;6.35;76.64
54453;BME280;40363;52.270;10.546;2023-12-20T11:52:52;99859.25;;;6.31;77.55
54453;BME280;40363;52.270;10.546;2023-12-20T11:55:20;99857.63;;;6.30;77.19
54453;BME280;40363;52.270;10.546;2023-12-20T11:57:47;99874.44;;;6.32;77.39
54453;BME280;40363;52.270;10.546;2023-12-20T12:00:16;99841.31;;;6.30;77.92
54453;BME280;40363;52.270;10.546;2023-12-20T12:02:55;99848.84;;;6.24;79.02
54453;BME280;40363;52.270;10.546;2023-12-20T12:05:21;99853.97;;;6.26;78.92
54453;BME280;40363;52.270;10.546;2023-12-20T12:07:48;99851.06;;;6.22;79.42
54453;BME280;40363;52.270;10.546;2023-12-20T12:10:15;99846.91;;;6.16;80.57
54453;BME280;40363;52.270;10.546;2023-12-20T12:12:41;99856.66;;;6.08;81.03
54453;BME280;40363;52.270;10.546;2023-12-20T12:15:08;99851.03;;;6.05;81.47
54453;BME280;40363;52.270;10.546;2023-12-20T12:17:36;99852.66;;;5.97;81.86
54453;BME280;40363;52.270;10.546;2023-12-20T12:20:04;99863.31;;;5.93;82.72
54453;BME280;40363;52.270;10.546;2023-12-20T12:22:31;99872.59;;;5.84;83.29
54453;BME280;40363;52.270;10.546;2023-12-20T12:24:59;99876.06;;;5.75;83.02
54453;BME280;40363;52.270;10.546;2023-12-20T12:27:27;99875.59;;;5.73;83.22
54453;BME280;40363;52.270;10.546;2023-12-20T12:30:00;99873.00;;;5.68;83.60
54453;BME280;40363;52.270;10.546;2023-12-20T12:32:28;99886.25;;;5.61;83.55
54453;BME280;40363;52.270;10.546;2023-12-20T12:34:57;99856.19;;;5.57;83.64
54453;BME280;40363;52.270;10.546;2023-12-20T12:37:23;99854.44;;;5.62;84.06
54453;BME280;40363;52.270;10.546;2023-12-20T12:39:53;99859.75;;;5.67;83.92
54453;BME280;40363;52.270;10.546;2023-12-20T12:42:20;99864.03;;;5.68;84.03
54453;BME280;40363;52.270;10.546;2023-12-20T12:44:51;99869.31;;;5.64;84.17
54453;BME280;40363;52.270;10.546;2023-12-20T12:47:18;99870.94;;;5.65;84.35
54453;BME280;40363;52.270;10.546;2023-12-20T12:49:44;99868.53;;;5.72;84.32
54453;BME280;40363;52.270;10.546;2023-12-20T12:52:13;99877.78;;;5.63;83.05
54453;BME280;40363;52.270;10.546;2023-12-20T12:54:39;99882.75;;;5.61;81.88
54453;BME280;40363;52.270;10.546;2023-12-20T12:57:06;99873.72;;;5.51;80.77